sensor_id;sensor_type;location;lat;lon;timestamp;P1;durP1;ratioP1;P2;durP2;ratioP2
68449;SDS011;67758;39.572;2.652;2023-05-10T00:01:05;7.43;;;1.20;;
68449;SDS011;67758;39.572;2.652;2023-05-10T00:03:30;9.45;;;1.67;;
68449;SDS011;67758;39.572;2.652;2023-05-10T00:05:56;8.97;;;1.40;;
68449;SDS011;67758;39.572;2.652;2023-05-10T00:08:22;7.93;;;1.50;;
68449;SDS011;67758;39.572;2.652;2023-05-10T00:10:48;9.57;;;1.80;;
68449;SDS011;67758;39.572;2.652;2023-05-10T00:13:14;8.13;;;1.13;;
68449;SDS011;67758;39.572;2.652;2023-05-10T00:15:40;9.10;;;1.77;;
68449;SDS011;67758;39.572;2.652;2023-05-10T00:18:05;7.10;;;1.40;;
68449;SDS011;67758;39.572;2.652;2023-05-10T00:20:31;5.43;;;1.48;;
68449;SDS011;67758;39.572;2.652;2023-05-10T00:22:57;11.53;;;1.60;;
68449;SDS011;67758;39.572;2.652;2023-05-10T00:25:22;7.57;;;1.50;;
68449;SDS011;67758;39.572;2.652;2023-05-10T00:27:48;4.73;;;0.87;;
68449;SDS011;67758;39.572;2.652;2023-05-10T00:30:17;9.10;;;1.40;;
68449;SDS011;67758;39.572;2.652;2023-05-10T00:32:43;8.60;;;1.10;;
68449;SDS011;67758;39.572;2.652;2023-05-10T00:35:08;7.53;;;1.37;;
68449;SDS011;67758;39.572;2.652;2023-05-10T00:37:34;8.07;;;1.27;;
68449;SDS011;67758;39.572;2.652;2023-05-10T00:40:00;8.10;;;1.70;;
68449;SDS011;67758;39.572;2.652;2023-05-10T00:42:25;7.45;;;1.40;;
68449;SDS011;67758;39.572;2.652;2023-05-10T00:44:51;9.80;;;1.30;;
68449;SDS011;67758;39.572;2.652;2023-05-10T00:47:17;8.90;;;1.50;;
68449;SDS011;67758;39.572;2.652;2023-05-10T00:49:43;8.43;;;1.10;;
68449;SDS011;67758;39.572;2.652;2023-05-10T00:52:09;4.85;;;0.98;;
68449;SDS011;67758;39.572;2.652;2023-05-10T00:54:35;9.03;;;1.20;;
68449;SDS011;67758;39.572;2.652;2023-05-10T00:57:01;6.67;;;1.03;;
68449;SDS011;67758;39.572;2.652;2023-05-10T00:59:27;8.80;;;1.10;;
68449;SDS011;67758;39.572;2.652;2023-05-10T01:01:53;7.38;;;1.00;;
68449;SDS011;67758;39.572;2.652;2023-05-10T01:04:19;8.93;;;1.20;;
68449;SDS011;67758;39.572;2.652;2023-05-10T01:06:50;5.28;;;0.77;;
68449;SDS011;67758;39.572;2.652;2023-05-10T01:09:16;9.85;;;1.45;;
68449;SDS011;67758;39.572;2.652;2023-05-10T01:11:43;10.68;;;1.27;;
68449;SDS011;67758;39.572;2.652;2023-05-10T01:14:09;9.13;;;0.90;;
68449;SDS011;67758;39.572;2.652;2023-05-10T01:16:37;5.82;;;0.90;;
68449;SDS011;67758;39.572;2.652;2023-05-10T01:19:06;9.43;;;1.10;;
68449;SDS011;67758;39.572;2.652;2023-05-10T01:21:43;5.85;;;0.90;;
68449;SDS011;67758;39.572;2.652;2023-05-10T01:24:19;7.17;;;1.17;;
68449;SDS011;67758;39.572;2.652;2023-05-10T01:35:42;7.57;;;0.70;;
68449;SDS011;67758;39.572;2.652;2023-05-10T01:41:00;6.95;;;1.00;;
68449;SDS011;67758;39.572;2.652;2023-05-10T01:46:43;6.45;;;0.80;;
68449;SDS011;67758;39.572;2.652;2023-05-10T01:49:20;6.55;;;0.90;;
68449;SDS011;67758;39.572;2.652;2023-05-10T01:52:00;5.53;;;0.70;;
68449;SDS011;67758;39.572;2.652;2023-05-10T01:54:36;4.43;;;0.63;;
68449;SDS011;67758;39.572;2.652;2023-05-10T01:57:06;8.82;;;0.90;;
68449;SDS011;67758;39.572;2.652;2023-05-10T01:59:37;6.13;;;0.73;;
68449;SDS011;67758;39.572;2.652;2023-05-10T02:02:08;6.80;;;0.90;;
68449;SDS011;67758;39.572;2.652;2023-05-10T02:04:37;9.97;;;1.00;;
68449;SDS011;67758;39.572;2.652;2023-05-10T02:07:04;8.80;;;0.90;;
68449;SDS011;67758;39.572;2.652;2023-05-10T02:09:31;9.43;;;1.00;;
68449;SDS011;67758;39.572;2.652;2023-05-10T02:11:59;5.70;;;0.70;;
68449;SDS011;67758;39.572;2.652;2023-05-10T02:14:27;4.85;;;0.70;;
68449;SDS011;67758;39.572;2.652;2023-05-10T02:16:55;6.03;;;1.00;;
68449;SDS011;67758;39.572;2.652;2023-05-10T02:19:22;5.75;;;0.70;;
68449;SDS011;67758;39.572;2.652;2023-05-10T02:21:49;6.05;;;0.60;;
68449;SDS011;67758;39.572;2.652;2023-05-10T02:24:16;6.05;;;0.50;;
68449;SDS011;67758;39.572;2.652;2023-05-10T02:26:42;6.72;;;0.63;;
68449;SDS011;67758;39.572;2.652;2023-05-10T02:29:10;7.43;;;0.60;;
68449;SDS011;67758;39.572;2.652;2023-05-10T02:31:37;4.05;;;0.70;;
68449;SDS011;67758;39.572;2.652;2023-05-10T02:34:04;5.82;;;0.50;;
68449;SDS011;67758;39.572;2.652;2023-05-10T02:36:32;6.22;;;0.65;;
68449;SDS011;67758;39.572;2.652;2023-05-10T02:38:58;6.22;;;0.63;;
68449;SDS011;67758;39.572;2.652;2023-05-10T02:41:27;4.40;;;0.50;;
68449;SDS011;67758;39.572;2.652;2023-05-10T02:43:55;6.88;;;0.50;;
68449;SDS011;67758;39.572;2.652;2023-05-10T02:46:24;4.95;;;0.45;;
68449;SDS011;67758;39.572;2.652;2023-05-10T02:48:50;11.10;;;0.70;;
68449;SDS011;67758;39.572;2.652;2023-05-10T02:51:16;6.30;;;0.60;;
68449;SDS011;67758;39.572;2.652;2023-05-10T02:53:44;5.18;;;0.60;;
68449;SDS011;67758;39.572;2.652;2023-05-10T02:56:17;4.95;;;0.50;;
68449;SDS011;67758;39.572;2.652;2023-05-10T02:58:48;6.38;;;0.70;;
68449;SDS011;67758;39.572;2.652;2023-05-10T03:01:14;9.70;;;0.80;;
68449;SDS011;67758;39.572;2.652;2023-05-10T03:03:40;9.55;;;0.50;;
68449;SDS011;67758;39.572;2.652;2023-05-10T03:06:06;5.05;;;0.50;;
68449;SDS011;67758;39.572;2.652;2023-05-10T03:08:32;4.93;;;0.60;;
68449;SDS011;67758;39.572;2.652;2023-05-10T03:11:07;7.82;;;0.68;;
68449;SDS011;67758;39.572;2.652;2023-05-10T03:16:21;5.40;;;0.60;;
68449;SDS011;67758;39.572;2.652;2023-05-10T03:18:56;6.47;;;0.50;;
68449;SDS011;67758;39.572;2.652;2023-05-10T03:21:47;5.10;;;0.60;;
68449;SDS011;67758;39.572;2.652;2023-05-10T03:24:16;5.55;;;0.55;;
68449;SDS011;67758;39.572;2.652;2023-05-10T03:26:45;5.78;;;0.40;;
68449;SDS011;67758;39.572;2.652;2023-05-10T03:29:12;3.97;;;0.40;;
68449;SDS011;67758;39.572;2.652;2023-05-10T03:31:40;3.55;;;0.50;;
68449;SDS011;67758;39.572;2.652;2023-05-10T03:34:05;5.35;;;0.73;;
68449;SDS011;67758;39.572;2.652;2023-05-10T03:36:32;5.47;;;0.45;;
68449;SDS011;67758;39.572;2.652;2023-05-10T03:38:57;4.90;;;0.50;;
68449;SDS011;67758;39.572;2.652;2023-05-10T03:41:23;3.47;;;0.40;;
68449;SDS011;67758;39.572;2.652;2023-05-10T03:43:50;4.45;;;0.47;;
68449;SDS011;67758;39.572;2.652;2023-05-10T03:46:16;3.97;;;0.50;;
68449;SDS011;67758;39.572;2.652;2023-05-10T03:48:42;5.27;;;0.50;;
68449;SDS011;67758;39.572;2.652;2023-05-10T03:51:08;3.97;;;0.50;;
68449;SDS011;67758;39.572;2.652;2023-05-10T03:53:33;6.63;;;0.40;;
68449;SDS011;67758;39.572;2.652;2023-05-10T03:55:59;5.30;;;0.45;;
68449;SDS011;67758;39.572;2.652;2023-05-10T03:58:25;5.67;;;0.60;;
68449;SDS011;67758;39.572;2.652;2023-05-10T04:00:51;6.47;;;0.57;;
68449;SDS011;67758;39.572;2.652;2023-05-10T04:03:17;6.13;;;0.50;;
68449;SDS011;67758;39.572;2.652;2023-05-10T04:05:44;4.03;;;0.30;;
68449;SDS011;67758;39.572;2.652;2023-05-10T04:08:10;4.53;;;0.68;;
68449;SDS011;67758;39.572;2.652;2023-05-10T04:10:35;5.60;;;0.40;;
68449;SDS011;67758;39.572;2.652;2023-05-10T04:13:01;5.90;;;0.70;;
68449;SDS011;67758;39.572;2.652;2023-05-10T04:15:26;5.77;;;0.60;;
68449;SDS011;67758;39.572;2.652;2023-05-10T04:17:52;6.50;;;0.43;;
68449;SDS011;67758;39.572;2.652;2023-05-10T04:20:18;6.60;;;0.50;;
68449;SDS011;67758;39.572;2.652;2023-05-10T04:22:44;4.75;;;0.40;;
68449;SDS011;67758;39.572;2.652;2023-05-10T04:25:09;4.37;;;0.43;;
68449;SDS011;67758;39.572;2.652;2023-05-10T04:27:35;3.13;;;0.40;;
68449;SDS011;67758;39.572;2.652;2023-05-10T04:30:01;4.60;;;0.60;;
68449;SDS011;67758;39.572;2.652;2023-05-10T04:32:28;6.25;;;0.50;;
68449;SDS011;67758;39.572;2.652;2023-05-10T04:34:54;6.15;;;0.52;;
68449;SDS011;67758;39.572;2.652;2023-05-10T04:37:19;6.53;;;0.70;;
68449;SDS011;67758;39.572;2.652;2023-05-10T04:39:46;4.25;;;0.50;;
68449;SDS011;67758;39.572;2.652;2023-05-10T04:42:12;5.90;;;0.60;;
68449;SDS011;67758;39.572;2.652;2023-05-10T04:44:40;4.35;;;0.68;;
68449;SDS011;67758;39.572;2.652;2023-05-10T04:47:06;5.70;;;0.80;;
68449;SDS011;67758;39.572;2.652;2023-05-10T04:49:32;5.03;;;0.88;;
68449;SDS011;67758;39.572;2.652;2023-05-10T04:51:57;5.63;;;0.90;;
68449;SDS011;67758;39.572;2.652;2023-05-10T04:54:23;6.37;;;0.90;;
68449;SDS011;67758;39.572;2.652;2023-05-10T04:56:49;7.25;;;0.80;;
68449;SDS011;67758;39.572;2.652;2023-05-10T04:59:14;8.87;;;0.77;;
68449;SDS011;67758;39.572;2.652;2023-05-10T05:01:40;4.20;;;0.47;;
68449;SDS011;67758;39.572;2.652;2023-05-10T05:04:05;5.23;;;0.90;;
68449;SDS011;67758;39.572;2.652;2023-05-10T05:06:32;10.50;;;0.85;;
68449;SDS011;67758;39.572;2.652;2023-05-10T05:08:57;4.40;;;0.55;;
68449;SDS011;67758;39.572;2.652;2023-05-10T05:11:23;4.30;;;0.83;;
68449;SDS011;67758;39.572;2.652;2023-05-10T05:13:48;7.20;;;0.60;;
68449;SDS011;67758;39.572;2.652;2023-05-10T05:16:14;8.93;;;0.70;;
68449;SDS011;67758;39.572;2.652;2023-05-10T05:18:40;4.13;;;0.63;;
68449;SDS011;67758;39.572;2.652;2023-05-10T05:21:15;5.85;;;0.60;;
68449;SDS011;67758;39.572;2.652;2023-05-10T05:23:46;4.70;;;0.75;;
68449;SDS011;67758;39.572;2.652;2023-05-10T05:26:15;6.72;;;0.90;;
68449;SDS011;67758;39.572;2.652;2023-05-10T05:28:41;6.37;;;1.10;;
68449;SDS011;67758;39.572;2.652;2023-05-10T05:31:09;5.22;;;0.73;;
68449;SDS011;67758;39.572;2.652;2023-05-10T05:33:35;9.00;;;1.13;;
68449;SDS011;67758;39.572;2.652;2023-05-10T05:36:01;9.93;;;0.90;;
68449;SDS011;67758;39.572;2.652;2023-05-10T05:38:28;7.03;;;0.85;;
68449;SDS011;67758;39.572;2.652;2023-05-10T05:40:53;6.60;;;1.50;;
68449;SDS011;67758;39.572;2.652;2023-05-10T05:43:19;7.57;;;1.10;;
68449;SDS011;67758;39.572;2.652;2023-05-10T05:45:45;10.70;;;0.97;;
68449;SDS011;67758;39.572;2.652;2023-05-10T05:48:13;5.68;;;1.00;;
68449;SDS011;67758;39.572;2.652;2023-05-10T05:50:39;7.23;;;0.90;;
68449;SDS011;67758;39.572;2.652;2023-05-10T05:53:05;6.13;;;0.90;;
68449;SDS011;67758;39.572;2.652;2023-05-10T05:55:30;6.03;;;0.90;;
68449;SDS011;67758;39.572;2.652;2023-05-10T05:57:57;8.55;;;0.90;;
68449;SDS011;67758;39.572;2.652;2023-05-10T06:00:23;9.07;;;1.45;;
68449;SDS011;67758;39.572;2.652;2023-05-10T06:02:49;8.98;;;1.30;;
68449;SDS011;67758;39.572;2.652;2023-05-10T06:05:17;9.93;;;1.20;;
68449;SDS011;67758;39.572;2.652;2023-05-10T06:07:43;8.35;;;1.48;;
68449;SDS011;67758;39.572;2.652;2023-05-10T06:10:08;8.23;;;1.30;;
68449;SDS011;67758;39.572;2.652;2023-05-10T06:12:35;6.30;;;1.17;;
68449;SDS011;67758;39.572;2.652;2023-05-10T06:15:01;5.43;;;0.90;;
68449;SDS011;67758;39.572;2.652;2023-05-10T06:17:27;6.25;;;0.88;;
68449;SDS011;67758;39.572;2.652;2023-05-10T06:19:53;6.80;;;0.90;;
68449;SDS011;67758;39.572;2.652;2023-05-10T06:22:19;5.22;;;0.80;;
68449;SDS011;67758;39.572;2.652;2023-05-10T06:24:46;5.47;;;0.90;;
68449;SDS011;67758;39.572;2.652;2023-05-10T06:27:12;4.77;;;0.73;;
68449;SDS011;67758;39.572;2.652;2023-05-10T06:29:38;9.05;;;0.70;;
68449;SDS011;67758;39.572;2.652;2023-05-10T06:32:04;5.40;;;0.77;;
68449;SDS011;67758;39.572;2.652;2023-05-10T06:34:29;6.70;;;0.70;;
68449;SDS011;67758;39.572;2.652;2023-05-10T06:36:55;4.03;;;0.70;;
68449;SDS011;67758;39.572;2.652;2023-05-10T06:39:21;6.03;;;0.68;;
68449;SDS011;67758;39.572;2.652;2023-05-10T06:41:46;5.57;;;0.70;;
68449;SDS011;67758;39.572;2.652;2023-05-10T06:44:14;6.85;;;0.80;;
68449;SDS011;67758;39.572;2.652;2023-05-10T06:46:40;4.50;;;0.47;;
68449;SDS011;67758;39.572;2.652;2023-05-10T06:49:06;11.43;;;0.90;;
68449;SDS011;67758;39.572;2.652;2023-05-10T06:51:32;7.83;;;0.93;;
68449;SDS011;67758;39.572;2.652;2023-05-10T06:53:58;8.95;;;0.93;;
68449;SDS011;67758;39.572;2.652;2023-05-10T06:56:23;45.00;;;4.83;;
68449;SDS011;67758;39.572;2.652;2023-05-10T06:58:49;10.67;;;1.37;;
68449;SDS011;67758;39.572;2.652;2023-05-10T07:01:17;92.90;;;8.25;;
68449;SDS011;67758;39.572;2.652;2023-05-10T07:03:43;10.40;;;1.30;;
68449;SDS011;67758;39.572;2.652;2023-05-10T07:06:08;5.83;;;0.80;;
68449;SDS011;67758;39.572;2.652;2023-05-10T07:08:43;7.43;;;0.60;;
68449;SDS011;67758;39.572;2.652;2023-05-10T07:11:09;9.60;;;0.90;;
68449;SDS011;67758;39.572;2.652;2023-05-10T07:13:37;6.43;;;0.80;;
68449;SDS011;67758;39.572;2.652;2023-05-10T07:16:06;6.07;;;0.80;;
68449;SDS011;67758;39.572;2.652;2023-05-10T07:18:33;6.32;;;0.60;;
68449;SDS011;67758;39.572;2.652;2023-05-10T07:20:59;5.03;;;0.73;;
68449;SDS011;67758;39.572;2.652;2023-05-10T07:23:25;5.90;;;0.60;;
68449;SDS011;67758;39.572;2.652;2023-05-10T07:25:51;7.80;;;0.80;;
68449;SDS011;67758;39.572;2.652;2023-05-10T07:28:17;6.35;;;0.80;;
68449;SDS011;67758;39.572;2.652;2023-05-10T07:30:52;3.65;;;0.50;;
68449;SDS011;67758;39.572;2.652;2023-05-10T07:33:18;5.35;;;0.73;;
68449;SDS011;67758;39.572;2.652;2023-05-10T07:35:44;5.80;;;0.60;;
68449;SDS011;67758;39.572;2.652;2023-05-10T07:38:09;5.90;;;0.60;;
68449;SDS011;67758;39.572;2.652;2023-05-10T07:40:36;6.13;;;1.00;;
68449;SDS011;67758;39.572;2.652;2023-05-10T07:43:03;5.80;;;0.55;;
68449;SDS011;67758;39.572;2.652;2023-05-10T07:45:28;15.32;;;5.85;;
68449;SDS011;67758;39.572;2.652;2023-05-10T07:47:54;9.93;;;1.20;;
68449;SDS011;67758;39.572;2.652;2023-05-10T07:50:20;6.75;;;0.80;;
68449;SDS011;67758;39.572;2.652;2023-05-10T07:52:46;18.97;;;2.30;;
68449;SDS011;67758;39.572;2.652;2023-05-10T07:55:12;9.35;;;1.10;;
68449;SDS011;67758;39.572;2.652;2023-05-10T07:57:38;17.80;;;1.75;;
68449;SDS011;67758;39.572;2.652;2023-05-10T08:00:04;8.20;;;1.17;;
68449;SDS011;67758;39.572;2.652;2023-05-10T08:02:31;5.57;;;0.77;;
68449;SDS011;67758;39.572;2.652;2023-05-10T08:04:58;4.90;;;0.40;;
68449;SDS011;67758;39.572;2.652;2023-05-10T08:07:24;6.37;;;1.00;;
68449;SDS011;67758;39.572;2.652;2023-05-10T08:09:50;7.15;;;0.80;;
68449;SDS011;67758;39.572;2.652;2023-05-10T08:12:15;10.07;;;2.30;;
68449;SDS011;67758;39.572;2.652;2023-05-10T08:14:42;7.67;;;1.20;;
68449;SDS011;67758;39.572;2.652;2023-05-10T08:17:15;8.45;;;0.85;;
68449;SDS011;67758;39.572;2.652;2023-05-10T08:19:41;4.97;;;0.63;;
68449;SDS011;67758;39.572;2.652;2023-05-10T08:22:06;7.45;;;1.00;;
68449;SDS011;67758;39.572;2.652;2023-05-10T08:24:32;4.63;;;0.70;;
68449;SDS011;67758;39.572;2.652;2023-05-10T08:26:59;6.43;;;0.80;;
68449;SDS011;67758;39.572;2.652;2023-05-10T08:29:25;11.93;;;1.02;;
68449;SDS011;67758;39.572;2.652;2023-05-10T08:31:51;5.23;;;0.70;;
68449;SDS011;67758;39.572;2.652;2023-05-10T08:34:17;5.03;;;0.85;;
68449;SDS011;67758;39.572;2.652;2023-05-10T08:36:42;6.43;;;1.10;;
68449;SDS011;67758;39.572;2.652;2023-05-10T08:39:08;11.97;;;0.93;;
68449;SDS011;67758;39.572;2.652;2023-05-10T08:41:34;4.67;;;0.70;;
68449;SDS011;67758;39.572;2.652;2023-05-10T08:44:02;8.35;;;1.48;;
68449;SDS011;67758;39.572;2.652;2023-05-10T08:46:29;8.40;;;1.10;;
68449;SDS011;67758;39.572;2.652;2023-05-10T08:48:58;6.68;;;0.60;;
68449;SDS011;67758;39.572;2.652;2023-05-10T08:51:28;9.98;;;1.17;;
68449;SDS011;67758;39.572;2.652;2023-05-10T08:54:00;4.03;;;0.60;;
68449;SDS011;67758;39.572;2.652;2023-05-10T08:56:26;8.02;;;1.00;;
68449;SDS011;67758;39.572;2.652;2023-05-10T08:58:52;7.30;;;0.90;;
68449;SDS011;67758;39.572;2.652;2023-05-10T09:01:18;5.50;;;0.73;;
68449;SDS011;67758;39.572;2.652;2023-05-10T09:03:47;11.85;;;1.42;;
68449;SDS011;67758;39.572;2.652;2023-05-10T09:06:15;6.90;;;0.90;;
68449;SDS011;67758;39.572;2.652;2023-05-10T09:08:42;4.60;;;0.98;;
68449;SDS011;67758;39.572;2.652;2023-05-10T09:11:08;5.13;;;0.70;;
68449;SDS011;67758;39.572;2.652;2023-05-10T09:13:35;10.33;;;1.00;;
68449;SDS011;67758;39.572;2.652;2023-05-10T09:16:02;5.40;;;0.68;;
68449;SDS011;67758;39.572;2.652;2023-05-10T09:18:30;6.68;;;1.08;;
68449;SDS011;67758;39.572;2.652;2023-05-10T09:20:56;19.17;;;2.85;;
68449;SDS011;67758;39.572;2.652;2023-05-10T09:23:21;11.13;;;1.00;;
68449;SDS011;67758;39.572;2.652;2023-05-10T09:25:47;8.65;;;1.50;;
68449;SDS011;67758;39.572;2.652;2023-05-10T09:28:13;10.13;;;1.13;;
68449;SDS011;67758;39.572;2.652;2023-05-10T09:30:38;9.68;;;1.30;;
68449;SDS011;67758;39.572;2.652;2023-05-10T09:33:04;9.03;;;1.27;;
68449;SDS011;67758;39.572;2.652;2023-05-10T09:35:30;6.15;;;1.05;;
68449;SDS011;67758;39.572;2.652;2023-05-10T09:38:00;12.43;;;1.90;;
68449;SDS011;67758;39.572;2.652;2023-05-10T09:40:28;8.05;;;1.10;;
68449;SDS011;67758;39.572;2.652;2023-05-10T09:42:56;9.23;;;1.25;;
68449;SDS011;67758;39.572;2.652;2023-05-10T09:45:27;6.30;;;1.25;;
68449;SDS011;67758;39.572;2.652;2023-05-10T09:47:58;8.10;;;2.60;;
68449;SDS011;67758;39.572;2.652;2023-05-10T09:50:24;10.43;;;1.45;;
68449;SDS011;67758;39.572;2.652;2023-05-10T09:52:54;9.52;;;1.67;;
68449;SDS011;67758;39.572;2.652;2023-05-10T09:55:38;10.30;;;2.10;;
68449;SDS011;67758;39.572;2.652;2023-05-10T09:58:06;13.48;;;1.70;;
68449;SDS011;67758;39.572;2.652;2023-05-10T10:00:35;9.30;;;1.60;;
68449;SDS011;67758;39.572;2.652;2023-05-10T10:03:02;11.32;;;1.95;;
68449;SDS011;67758;39.572;2.652;2023-05-10T10:05:31;15.07;;;1.90;;
68449;SDS011;67758;39.572;2.652;2023-05-10T10:08:01;11.70;;;1.73;;
68449;SDS011;67758;39.572;2.652;2023-05-10T10:10:28;10.15;;;1.52;;
68449;SDS011;67758;39.572;2.652;2023-05-10T10:13:01;13.05;;;1.83;;
68449;SDS011;67758;39.572;2.652;2023-05-10T10:15:31;11.00;;;1.45;;
68449;SDS011;67758;39.572;2.652;2023-05-10T10:18:03;10.48;;;1.30;;
68449;SDS011;67758;39.572;2.652;2023-05-10T10:20:30;14.57;;;2.10;;
68449;SDS011;67758;39.572;2.652;2023-05-10T10:22:56;12.63;;;1.88;;
68449;SDS011;67758;39.572;2.652;2023-05-10T10:25:22;15.10;;;1.90;;
68449;SDS011;67758;39.572;2.652;2023-05-10T10:30:37;10.75;;;1.70;;
68449;SDS011;67758;39.572;2.652;2023-05-10T10:36:00;15.80;;;1.85;;
68449;SDS011;67758;39.572;2.652;2023-05-10T10:47:06;22.38;;;2.13;;
68449;SDS011;67758;39.572;2.652;2023-05-10T10:55:12;13.73;;;1.77;;
68449;SDS011;67758;39.572;2.652;2023-05-10T10:57:56;11.50;;;1.60;;
68449;SDS011;67758;39.572;2.652;2023-05-10T11:03:15;12.32;;;2.13;;
68449;SDS011;67758;39.572;2.652;2023-05-10T11:05:44;11.13;;;1.50;;
68449;SDS011;67758;39.572;2.652;2023-05-10T11:08:30;13.88;;;2.00;;
68449;SDS011;67758;39.572;2.652;2023-05-10T11:11:09;12.60;;;2.17;;
68449;SDS011;67758;39.572;2.652;2023-05-10T11:13:38;14.05;;;2.20;;
68449;SDS011;67758;39.572;2.652;2023-05-10T11:16:21;12.07;;;1.85;;
68449;SDS011;67758;39.572;2.652;2023-05-10T11:21:32;13.45;;;1.70;;
68449;SDS011;67758;39.572;2.652;2023-05-10T11:24:12;10.90;;;1.52;;
68449;SDS011;67758;39.572;2.652;2023-05-10T11:26:44;16.52;;;2.63;;
68449;SDS011;67758;39.572;2.652;2023-05-10T11:29:10;10.95;;;2.17;;
68449;SDS011;67758;39.572;2.652;2023-05-10T11:31:41;13.43;;;2.13;;
68449;SDS011;67758;39.572;2.652;2023-05-10T11:34:13;13.25;;;2.58;;
68449;SDS011;67758;39.572;2.652;2023-05-10T11:36:55;11.07;;;1.70;;
68449;SDS011;67758;39.572;2.652;2023-05-10T11:39:25;15.98;;;3.17;;
68449;SDS011;67758;39.572;2.652;2023-05-10T11:41:59;10.63;;;2.03;;
68449;SDS011;67758;39.572;2.652;2023-05-10T11:44:36;15.68;;;2.58;;
68449;SDS011;67758;39.572;2.652;2023-05-10T11:47:09;14.20;;;2.03;;
68449;SDS011;67758;39.572;2.652;2023-05-10T11:49:42;11.73;;;2.00;;
68449;SDS011;67758;39.572;2.652;2023-05-10T11:52:09;10.18;;;1.60;;
68449;SDS011;67758;39.572;2.652;2023-05-10T11:54:42;10.63;;;2.17;;
68449;SDS011;67758;39.572;2.652;2023-05-10T11:57:11;12.38;;;3.13;;
68449;SDS011;67758;39.572;2.652;2023-05-10T11:59:37;15.80;;;2.50;;
68449;SDS011;67758;39.572;2.652;2023-05-10T12:02:02;18.77;;;4.37;;
68449;SDS011;67758;39.572;2.652;2023-05-10T12:04:49;14.88;;;3.35;;
68449;SDS011;67758;39.572;2.652;2023-05-10T12:07:16;15.93;;;2.42;;
68449;SDS011;67758;39.572;2.652;2023-05-10T12:09:55;6.45;;;1.70;;
68449;SDS011;67758;39.572;2.652;2023-05-10T12:12:43;10.40;;;1.50;;
68449;SDS011;67758;39.572;2.652;2023-05-10T12:15:12;7.38;;;1.40;;
68449;SDS011;67758;39.572;2.652;2023-05-10T12:17:46;7.40;;;1.33;;
68449;SDS011;67758;39.572;2.652;2023-05-10T12:20:15;7.63;;;1.30;;
68449;SDS011;67758;39.572;2.652;2023-05-10T12:22:49;6.00;;;1.75;;
68449;SDS011;67758;39.572;2.652;2023-05-10T12:25:20;7.53;;;1.40;;
68449;SDS011;67758;39.572;2.652;2023-05-10T12:27:50;6.07;;;1.60;;
68449;SDS011;67758;39.572;2.652;2023-05-10T12:30:23;11.32;;;1.90;;
68449;SDS011;67758;39.572;2.652;2023-05-10T12:33:00;6.38;;;1.50;;
68449;SDS011;67758;39.572;2.652;2023-05-10T12:35:42;10.82;;;2.42;;
68449;SDS011;67758;39.572;2.652;2023-05-10T12:38:24;12.83;;;2.57;;
68449;SDS011;67758;39.572;2.652;2023-05-10T12:41:18;9.85;;;2.35;;
68449;SDS011;67758;39.572;2.652;2023-05-10T12:43:50;11.18;;;2.33;;
68449;SDS011;67758;39.572;2.652;2023-05-10T12:46:16;12.18;;;2.38;;
68449;SDS011;67758;39.572;2.652;2023-05-10T12:48:43;15.20;;;2.55;;
68449;SDS011;67758;39.572;2.652;2023-05-10T12:51:19;12.20;;;2.27;;
68449;SDS011;67758;39.572;2.652;2023-05-10T12:53:54;10.55;;;2.00;;
68449;SDS011;67758;39.572;2.652;2023-05-10T12:56:22;16.88;;;2.88;;
68449;SDS011;67758;39.572;2.652;2023-05-10T12:58:52;6.47;;;1.40;;
68449;SDS011;67758;39.572;2.652;2023-05-10T13:01:18;6.23;;;1.13;;
68449;SDS011;67758;39.572;2.652;2023-05-10T13:04:08;8.20;;;1.80;;
68449;SDS011;67758;39.572;2.652;2023-05-10T13:06:42;8.88;;;2.03;;
68449;SDS011;67758;39.572;2.652;2023-05-10T13:09:08;9.02;;;2.50;;
68449;SDS011;67758;39.572;2.652;2023-05-10T13:11:33;7.87;;;2.30;;
68449;SDS011;67758;39.572;2.652;2023-05-10T13:13:59;6.65;;;2.20;;
68449;SDS011;67758;39.572;2.652;2023-05-10T13:16:25;6.13;;;1.50;;
68449;SDS011;67758;39.572;2.652;2023-05-10T13:19:00;7.32;;;1.63;;
68449;SDS011;67758;39.572;2.652;2023-05-10T13:21:29;7.60;;;2.10;;
68449;SDS011;67758;39.572;2.652;2023-05-10T13:24:18;8.93;;;2.08;;
68449;SDS011;67758;39.572;2.652;2023-05-10T13:26:47;5.70;;;1.67;;
68449;SDS011;67758;39.572;2.652;2023-05-10T13:29:19;8.13;;;2.30;;
68449;SDS011;67758;39.572;2.652;2023-05-10T13:31:46;9.55;;;2.20;;
68449;SDS011;67758;39.572;2.652;2023-05-10T13:34:24;11.82;;;2.88;;
68449;SDS011;67758;39.572;2.652;2023-05-10T13:40:43;10.05;;;2.15;;
68449;SDS011;67758;39.572;2.652;2023-05-10T13:43:45;12.10;;;3.13;;
68449;SDS011;67758;39.572;2.652;2023-05-10T13:46:21;9.32;;;2.42;;
68449;SDS011;67758;39.572;2.652;2023-05-10T13:48:53;13.27;;;3.03;;
68449;SDS011;67758;39.572;2.652;2023-05-10T13:51:19;15.32;;;3.22;;
68449;SDS011;67758;39.572;2.652;2023-05-10T13:53:53;11.45;;;3.03;;
68449;SDS011;67758;39.572;2.652;2023-05-10T13:56:21;13.45;;;2.78;;
68449;SDS011;67758;39.572;2.652;2023-05-10T13:58:47;14.35;;;3.13;;
68449;SDS011;67758;39.572;2.652;2023-05-10T14:01:13;7.50;;;2.22;;
68449;SDS011;67758;39.572;2.652;2023-05-10T14:03:43;8.00;;;2.67;;
68449;SDS011;67758;39.572;2.652;2023-05-10T14:06:09;8.73;;;2.20;;
68449;SDS011;67758;39.572;2.652;2023-05-10T14:08:40;7.80;;;1.90;;
68449;SDS011;67758;39.572;2.652;2023-05-10T14:11:11;10.77;;;3.20;;
68449;SDS011;67758;39.572;2.652;2023-05-10T14:13:40;10.20;;;2.65;;
68449;SDS011;67758;39.572;2.652;2023-05-10T14:16:15;9.18;;;3.00;;
68449;SDS011;67758;39.572;2.652;2023-05-10T14:18:55;11.15;;;2.47;;
68449;SDS011;67758;39.572;2.652;2023-05-10T14:21:21;10.65;;;2.35;;
68449;SDS011;67758;39.572;2.652;2023-05-10T14:23:53;9.43;;;3.27;;
68449;SDS011;67758;39.572;2.652;2023-05-10T14:33:34;16.63;;;3.80;;
68449;SDS011;67758;39.572;2.652;2023-05-10T14:41:10;11.47;;;2.80;;
68449;SDS011;67758;39.572;2.652;2023-05-10T14:48:30;11.27;;;3.40;;
68449;SDS011;67758;39.572;2.652;2023-05-10T14:56:34;11.70;;;3.65;;
68449;SDS011;67758;39.572;2.652;2023-05-10T15:05:18;15.82;;;3.10;;
68449;SDS011;67758;39.572;2.652;2023-05-10T15:07:50;9.57;;;2.80;;
68449;SDS011;67758;39.572;2.652;2023-05-10T15:10:16;14.82;;;3.78;;
68449;SDS011;67758;39.572;2.652;2023-05-10T15:12:46;11.20;;;2.80;;
68449;SDS011;67758;39.572;2.652;2023-05-10T15:15:12;14.82;;;3.50;;
68449;SDS011;67758;39.572;2.652;2023-05-10T15:17:37;14.65;;;3.42;;
68449;SDS011;67758;39.572;2.652;2023-05-10T15:20:21;13.60;;;3.10;;
68449;SDS011;67758;39.572;2.652;2023-05-10T15:22:59;13.30;;;3.83;;
68449;SDS011;67758;39.572;2.652;2023-05-10T15:25:24;14.05;;;3.95;;
68449;SDS011;67758;39.572;2.652;2023-05-10T15:27:54;11.82;;;3.83;;
68449;SDS011;67758;39.572;2.652;2023-05-10T15:30:22;15.20;;;3.90;;
68449;SDS011;67758;39.572;2.652;2023-05-10T15:32:53;15.15;;;3.28;;
68449;SDS011;67758;39.572;2.652;2023-05-10T15:35:19;13.02;;;3.53;;
68449;SDS011;67758;39.572;2.652;2023-05-10T15:37:45;15.10;;;3.63;;
68449;SDS011;67758;39.572;2.652;2023-05-10T15:40:18;15.55;;;3.45;;
68449;SDS011;67758;39.572;2.652;2023-05-10T15:42:44;13.88;;;4.28;;
68449;SDS011;67758;39.572;2.652;2023-05-10T15:45:10;11.93;;;3.25;;
68449;SDS011;67758;39.572;2.652;2023-05-10T15:47:36;12.23;;;3.42;;
68449;SDS011;67758;39.572;2.652;2023-05-10T15:50:05;13.20;;;3.40;;
68449;SDS011;67758;39.572;2.652;2023-05-10T15:52:34;13.23;;;3.40;;
68449;SDS011;67758;39.572;2.652;2023-05-10T15:55:01;15.05;;;3.20;;
68449;SDS011;67758;39.572;2.652;2023-05-10T15:57:28;13.35;;;3.85;;
68449;SDS011;67758;39.572;2.652;2023-05-10T15:59:54;13.77;;;3.10;;
68449;SDS011;67758;39.572;2.652;2023-05-10T16:02:20;10.73;;;2.17;;
68449;SDS011;67758;39.572;2.652;2023-05-10T16:04:47;13.85;;;2.63;;
68449;SDS011;67758;39.572;2.652;2023-05-10T16:07:13;13.73;;;2.63;;